createdAt,value
2023-02-24T00:02:06.228Z,37.80
2023-02-24T00:04:38.729Z,37.80
2023-02-24T00:07:11.411Z,37.80
2023-02-24T00:09:39.609Z,37.80
2023-02-24T00:12:10.773Z,37.80
2023-02-24T00:14:41.095Z,37.80
2023-02-24T00:17:10.236Z,37.80
2023-02-24T00:19:39.087Z,37.80
2023-02-24T00:22:08.572Z,37.80
2023-02-24T00:24:37.308Z,37.80
2023-02-24T00:27:11.923Z,37.80
2023-02-24T00:29:42.166Z,37.80
2023-02-24T00:32:13.834Z,37.80
2023-02-24T00:34:43.461Z,37.80
2023-02-24T00:37:12.238Z,37.80
2023-02-24T00:39:41.940Z,37.80
2023-02-24T00:42:12.377Z,37.80
2023-02-24T00:44:43.870Z,37.80
2023-02-24T00:47:12.711Z,37.80
2023-02-24T00:49:43.046Z,37.80
2023-02-24T00:52:21.216Z,37.80
2023-02-24T00:54:50.253Z,37.80
2023-02-24T00:57:18.778Z,37.80
2023-02-24T00:59:47.862Z,37.80
2023-02-24T01:02:16.211Z,37.80
2023-02-24T01:04:46.139Z,37.90
2023-02-24T01:07:14.821Z,37.80
2023-02-24T01:09:44.434Z,37.90
2023-02-24T01:12:32.025Z,37.80
2023-02-24T01:15:00.221Z,37.80
2023-02-24T01:17:28.001Z,37.90
2023-02-24T01:20:00.441Z,37.80
2023-02-24T01:22:28.338Z,37.90
2023-02-24T01:24:56.529Z,37.90
2023-02-24T01:27:24.674Z,37.90
2023-02-24T01:29:52.453Z,37.90
2023-02-24T01:32:21.981Z,37.90
2023-02-24T01:34:53.670Z,37.80
2023-02-24T01:37:22.099Z,37.90
2023-02-24T01:39:50.887Z,37.90
2023-02-24T01:42:21.122Z,37.90
2023-02-24T01:44:49.074Z,37.90
2023-02-24T01:47:22.516Z,37.90
2023-02-24T01:49:54.195Z,37.80
2023-02-24T01:52:24.393Z,37.90
2023-02-24T01:55:20.280Z,37.90
2023-02-24T01:57:50.725Z,37.90
2023-02-24T02:00:32.810Z,37.90
2023-02-24T02:03:24.389Z,37.90
2023-02-24T02:05:56.197Z,37.90
2023-02-24T02:08:24.894Z,37.90
2023-02-24T02:10:59.047Z,37.90
2023-02-24T02:13:29.334Z,37.90
2023-02-24T02:16:24.951Z,37.90
2023-02-24T02:19:02.490Z,37.90
2023-02-24T02:21:33.227Z,37.90
2023-02-24T02:24:25.776Z,37.90
2023-02-24T02:27:14.640Z,37.90
2023-02-24T02:30:00.819Z,38.00
2023-02-24T02:32:52.499Z,38.00
2023-02-24T02:36:00.653Z,38.00
2023-02-24T02:38:43.283Z,38.00
2023-02-24T02:41:35.336Z,38.00
2023-02-24T02:44:12.234Z,37.90
2023-02-24T02:46:47.032Z,37.90
2023-02-24T02:49:36.444Z,37.90
2023-02-24T02:52:13.877Z,38.00
2023-02-24T02:54:49.968Z,37.90
2023-02-24T02:57:23.280Z,37.90
2023-02-24T03:00:15.212Z,37.90
2023-02-24T03:02:48.320Z,37.80
2023-02-24T03:05:20.468Z,37.70
2023-02-24T03:07:54.837Z,37.60
2023-02-24T03:10:24.654Z,37.60
2023-02-24T03:12:55.426Z,37.50
2023-02-24T03:15:28.252Z,37.40
2023-02-24T03:18:10.444Z,37.50
2023-02-24T03:20:47.338Z,37.40
2023-02-24T03:23:25.893Z,37.30
2023-02-24T03:26:23.780Z,37.30
2023-02-24T03:29:13.123Z,37.30
2023-02-24T03:31:54.366Z,37.20
2023-02-24T03:34:28.996Z,37.20
2023-02-24T03:37:00.252Z,37.10
2023-02-24T03:39:28.520Z,37.10
2023-02-24T03:42:19.473Z,37.00
2023-02-24T03:44:48.684Z,37.00
2023-02-24T03:47:20.408Z,37.00
2023-02-24T03:49:50.627Z,36.90
2023-02-24T03:52:32.729Z,36.90
2023-02-24T03:55:08.702Z,36.90
2023-02-24T03:58:12.827Z,36.80
2023-02-24T04:00:48.848Z,36.90
2023-02-24T04:03:39.720Z,36.80
2023-02-24T04:06:58.901Z,37.10
2023-02-24T04:09:59.591Z,37.20
2023-02-24T04:12:38.825Z,37.40
2023-02-24T04:15:27.177Z,37.60
2023-02-24T04:18:07.355Z,37.70
2023-02-24T04:20:41.161Z,37.70
2023-02-24T04:23:22.039Z,37.80
2023-02-24T04:25:55.994Z,37.70
2023-02-24T04:28:25.850Z,37.80
2023-02-24T04:31:06.041Z,37.90
2023-02-24T04:33:38.793Z,38.10
2023-02-24T04:36:09.266Z,38.00
2023-02-24T04:38:40.168Z,38.00
2023-02-24T04:41:08.866Z,37.90
2023-02-24T04:43:36.748Z,37.90
2023-02-24T04:46:08.565Z,38.10
2023-02-24T04:48:37.168Z,38.00
2023-02-24T04:51:06.724Z,38.10
2023-02-24T04:53:34.792Z,38.10
2023-02-24T04:56:09.280Z,38.10
2023-02-24T04:58:39.987Z,38.20
2023-02-24T05:01:11.105Z,38.10
2023-02-24T05:03:43.089Z,38.20
2023-02-24T05:06:17.199Z,38.10
2023-02-24T05:08:46.008Z,38.20
2023-02-24T05:11:16.506Z,38.20
2023-02-24T05:13:46.223Z,38.10
2023-02-24T05:16:18.181Z,37.40
2023-02-24T05:18:46.872Z,33.10
2023-02-24T05:21:36.167Z,33.40
2023-02-24T05:24:07.241Z,33.50
2023-02-24T05:26:37.527Z,33.30
2023-02-24T05:29:07.145Z,33.70
2023-02-24T05:31:37.485Z,34.10
2023-02-24T05:34:08.405Z,35.30
2023-02-24T05:36:41.108Z,36.20
2023-02-24T05:39:14.870Z,36.70
2023-02-24T05:41:44.093Z,37.00
2023-02-24T05:44:23.620Z,37.30
2023-02-24T05:46:59.592Z,37.40
2023-02-24T05:49:34.142Z,37.60
2023-02-24T05:52:08.147Z,37.30
2023-02-24T05:54:42.712Z,37.00
2023-02-24T05:57:17.434Z,36.30
2023-02-24T05:59:48.786Z,35.90
2023-02-24T06:02:28.034Z,35.90
2023-02-24T06:04:56.512Z,35.70
2023-02-24T06:07:27.507Z,35.80
2023-02-24T06:09:58.467Z,35.60
2023-02-24T06:12:32.172Z,35.80
2023-02-24T06:15:01.201Z,35.80
2023-02-24T06:17:30.008Z,35.60
2023-02-24T06:19:58.228Z,35.60
2023-02-24T06:22:27.747Z,35.60
2023-02-24T06:24:57.187Z,35.60
2023-02-24T06:27:25.661Z,35.80
2023-02-24T06:29:55.305Z,35.60
2023-02-24T06:32:26.012Z,35.70
2023-02-24T06:34:55.511Z,35.70
2023-02-24T06:37:23.765Z,35.70
2023-02-24T06:39:52.174Z,35.60
2023-02-24T06:42:20.397Z,35.80
2023-02-24T06:44:49.357Z,35.90
2023-02-24T06:47:18.313Z,36.00
2023-02-24T06:49:46.553Z,36.10
2023-02-24T06:52:19.390Z,36.10
2023-02-24T06:54:52.668Z,36.20
2023-02-24T06:57:21.129Z,36.70
2023-02-24T06:59:49.680Z,36.50
2023-02-24T07:02:17.914Z,36.80
2023-02-24T07:04:46.478Z,36.40
2023-02-24T07:07:14.948Z,37.10
2023-02-24T07:09:45.725Z,37.60
2023-02-24T07:12:15.911Z,37.70
2023-02-24T07:14:44.398Z,38.40
2023-02-24T07:21:50.187Z,38.50
2023-02-24T07:24:25.514Z,38.70
2023-02-24T07:27:01.041Z,38.10
2023-02-24T07:29:31.430Z,38.10
2023-02-24T07:32:06.053Z,38.20
2023-02-24T07:34:35.270Z,38.40
2023-02-24T07:37:08.576Z,38.70
2023-02-24T07:39:39.751Z,38.80
2023-02-24T07:42:10.554Z,38.70
2023-02-24T07:44:47.021Z,39.10
2023-02-24T07:47:16.392Z,39.00
2023-02-24T07:49:45.839Z,39.40
2023-02-24T07:52:14.551Z,39.40
2023-02-24T07:54:42.705Z,39.50
2023-02-24T07:57:14.334Z,39.30
2023-02-24T07:59:47.725Z,39.60
2023-02-24T08:02:16.913Z,39.20
2023-02-24T08:04:50.683Z,38.80
2023-02-24T08:07:25.411Z,39.30
2023-02-24T08:10:12.626Z,38.80
2023-02-24T08:12:45.435Z,38.70
2023-02-24T08:15:24.415Z,38.70
2023-02-24T08:17:57.423Z,38.60
2023-02-24T08:20:27.695Z,38.70
2023-02-24T08:22:56.787Z,38.60
2023-02-24T08:25:36.162Z,38.60
2023-02-24T08:28:11.875Z,38.40
2023-02-24T08:30:47.048Z,38.60
2023-02-24T08:33:21.230Z,38.60
2023-02-24T08:36:02.577Z,38.60
2023-02-24T08:38:42.550Z,38.60
2023-02-24T08:41:18.624Z,38.70
2023-02-24T08:43:48.968Z,38.60
2023-02-24T08:46:21.672Z,38.70
2023-02-24T08:48:55.896Z,38.80
2023-02-24T08:51:35.285Z,38.80
2023-02-24T08:54:11.732Z,38.80
2023-02-24T08:56:44.084Z,38.90
2023-02-24T08:59:34.792Z,38.90
2023-02-24T09:02:21.992Z,38.90
2023-02-24T09:04:52.409Z,39.00
2023-02-24T09:07:29.604Z,39.00
2023-02-24T09:10:00.474Z,39.00
2023-02-24T09:12:30.609Z,39.10
2023-02-24T09:15:02.555Z,39.10
2023-02-24T09:17:54.874Z,39.10
2023-02-24T09:21:02.400Z,39.20
2023-02-24T09:23:30.796Z,39.20
2023-02-24T09:25:58.974Z,39.20
2023-02-24T09:28:29.555Z,39.30
2023-02-24T09:31:00.688Z,39.30
2023-02-24T09:33:49.389Z,39.20
2023-02-24T09:36:28.476Z,39.30
2023-02-24T09:39:02.483Z,39.40
2023-02-24T09:42:05.992Z,39.40
2023-02-24T09:44:46.311Z,39.50
2023-02-24T09:47:31.659Z,39.50
2023-02-24T09:50:14.791Z,39.70
2023-02-24T09:52:43.994Z,39.70
2023-02-24T09:56:04.159Z,39.60
2023-02-24T09:58:59.049Z,39.60
2023-02-24T10:01:36.839Z,39.60
2023-02-24T10:04:27.678Z,39.70
2023-02-24T10:06:59.770Z,39.70
2023-02-24T10:09:34.879Z,39.80
2023-02-24T10:12:11.994Z,39.80
2023-02-24T10:14:51.518Z,39.80
2023-02-24T10:17:24.375Z,39.80
2023-02-24T10:20:03.192Z,39.70
2023-02-24T10:22:52.975Z,40.00
2023-02-24T10:25:54.540Z,39.60
2023-02-24T10:33:19.036Z,39.70
2023-02-24T10:35:47.754Z,39.80
2023-02-24T10:38:16.336Z,39.70
2023-02-24T10:40:58.394Z,39.50
2023-02-24T10:43:30.617Z,39.50
2023-02-24T10:46:06.869Z,39.20
2023-02-24T10:48:41.802Z,39.20
2023-02-24T10:51:22.820Z,39.10
2023-02-24T10:54:14.955Z,39.10
2023-02-24T10:56:55.679Z,39.10
2023-02-24T10:59:48.681Z,39.10
2023-02-24T11:02:46.223Z,39.10
2023-02-24T11:05:33.633Z,38.90
2023-02-24T11:08:36.619Z,38.90
2023-02-24T11:11:20.718Z,38.80
2023-02-24T11:14:09.513Z,38.80
2023-02-24T11:17:16.080Z,38.80
2023-02-24T11:20:23.133Z,38.80
2023-02-24T11:22:56.067Z,38.70
2023-02-24T11:25:42.005Z,38.80
2023-02-24T11:28:54.958Z,38.70
2023-02-24T11:31:54.350Z,38.60
2023-02-24T11:34:29.343Z,38.60
2023-02-24T11:37:43.546Z,38.60
2023-02-24T11:40:31.352Z,38.40
2023-02-24T11:43:04.708Z,38.40
2023-02-24T11:45:53.840Z,38.40
2023-02-24T11:48:28.000Z,38.30
2023-02-24T11:51:12.310Z,38.30
2023-02-24T11:53:54.474Z,38.20
2023-02-24T11:56:32.231Z,38.00
2023-02-24T11:59:18.228Z,38.10
2023-02-24T12:02:04.312Z,38.00
2023-02-24T12:04:40.077Z,38.00
2023-02-24T12:07:14.954Z,38.10
2023-02-24T12:10:00.295Z,38.10
2023-02-24T12:12:55.275Z,37.90
2023-02-24T12:15:40.630Z,37.90
2023-02-24T12:18:28.003Z,37.80
2023-02-24T12:21:30.950Z,37.60
2023-02-24T12:23:59.997Z,37.40
2023-02-24T12:26:48.232Z,37.30
2023-02-24T12:29:32.871Z,37.10
2023-02-24T12:32:02.073Z,37.00
2023-02-24T12:35:08.309Z,37.00
2023-02-24T12:37:48.947Z,37.10
2023-02-24T12:40:46.233Z,37.10
2023-02-24T12:43:37.838Z,37.20
2023-02-24T12:46:10.345Z,37.10
2023-02-24T12:49:09.669Z,37.10
2023-02-24T12:52:11.911Z,37.10
2023-02-24T12:55:09.352Z,37.00
2023-02-24T12:57:39.665Z,37.00
2023-02-24T13:00:21.357Z,37.00
2023-02-24T13:03:16.065Z,36.90
2023-02-24T13:06:03.426Z,36.80
2023-02-24T13:08:46.149Z,36.90
2023-02-24T13:11:35.027Z,36.80
2023-02-24T13:14:20.716Z,36.80
2023-02-24T13:16:49.342Z,36.80
2023-02-24T13:19:26.872Z,36.80
2023-02-24T13:22:11.584Z,36.70
2023-02-24T13:24:55.833Z,36.70
2023-02-24T13:27:28.543Z,36.70
2023-02-24T13:30:04.624Z,36.80
2023-02-24T13:32:39.229Z,36.70
2023-02-24T13:35:27.984Z,36.70
2023-02-24T13:37:56.395Z,36.60
2023-02-24T13:40:29.587Z,36.80
2023-02-24T13:42:59.852Z,36.70
2023-02-24T13:45:32.024Z,36.70
2023-02-24T13:48:27.110Z,36.60
2023-02-24T13:51:08.872Z,36.70
2023-02-24T13:54:03.194Z,36.60
2023-02-24T13:56:37.351Z,36.60
2023-02-24T13:59:46.393Z,36.60
2023-02-24T14:02:21.852Z,36.60
2023-02-24T14:04:56.396Z,36.40
2023-02-24T14:07:30.953Z,36.60
2023-02-24T14:10:14.436Z,36.40
2023-02-24T14:12:45.034Z,36.60
2023-02-24T14:15:18.873Z,36.60
2023-02-24T14:18:04.013Z,36.60
2023-02-24T14:20:35.431Z,36.60
2023-02-24T14:23:18.492Z,36.40
2023-02-24T14:25:47.274Z,36.50
2023-02-24T14:28:23.835Z,36.50
2023-02-24T14:30:58.830Z,36.50
2023-02-24T14:33:33.992Z,36.50
2023-02-24T14:36:08.555Z,36.30
2023-02-24T14:38:44.795Z,35.90
2023-02-24T14:41:24.002Z,35.80
2023-02-24T14:43:53.136Z,35.70
2023-02-24T14:46:23.968Z,36.00
2023-02-24T14:48:56.431Z,36.10
2023-02-24T14:51:35.112Z,35.90
2023-02-24T14:54:09.276Z,36.00
2023-02-24T14:56:38.401Z,36.10
2023-02-24T14:59:17.207Z,36.10
2023-02-24T15:01:52.273Z,36.10
2023-02-24T15:04:26.416Z,36.20
2023-02-24T15:06:54.952Z,36.20
2023-02-24T15:09:26.711Z,36.30
2023-02-24T15:11:56.794Z,36.30
2023-02-24T15:14:28.557Z,36.50
2023-02-24T15:17:03.753Z,36.40
2023-02-24T15:19:33.597Z,36.60
2023-02-24T15:22:02.151Z,36.50
2023-02-24T15:24:35.594Z,36.50
2023-02-24T15:27:25.837Z,36.50
2023-02-24T15:30:23.108Z,36.40
2023-02-24T15:33:01.967Z,36.40
2023-02-24T15:35:33.571Z,36.40
2023-02-24T15:38:03.187Z,36.30
2023-02-24T15:40:32.078Z,36.40
2023-02-24T15:43:12.306Z,36.30
2023-02-24T15:45:40.949Z,36.30
2023-02-24T15:48:25.266Z,36.30
2023-02-24T15:50:54.947Z,36.20
2023-02-24T15:53:23.267Z,36.20
2023-02-24T15:55:52.237Z,36.10
2023-02-24T15:58:23.114Z,36.00
2023-02-24T16:00:52.785Z,35.90
2023-02-24T16:03:20.960Z,35.60
2023-02-24T16:05:49.266Z,35.70
2023-02-24T16:08:20.164Z,36.00
2023-02-24T16:10:50.865Z,35.80
2023-02-24T16:13:23.108Z,35.80
2023-02-24T16:15:52.877Z,35.90
2023-02-24T16:18:23.830Z,36.00
2023-02-24T16:20:57.064Z,36.00
2023-02-24T16:23:27.047Z,36.10
2023-02-24T16:25:59.265Z,36.10
2023-02-24T16:28:27.519Z,36.10
2023-02-24T16:30:55.960Z,36.10
2023-02-24T16:33:24.673Z,36.10
2023-02-24T16:35:53.837Z,36.10
2023-02-24T16:38:27.025Z,36.10
2023-02-24T16:40:56.334Z,36.10
2023-02-24T16:43:25.266Z,36.10
2023-02-24T16:45:55.953Z,36.10
2023-02-24T16:48:26.805Z,36.10
2023-02-24T16:50:55.109Z,36.00
2023-02-24T16:53:24.717Z,36.10
2023-02-24T16:55:53.515Z,36.10
2023-02-24T16:58:23.650Z,36.10
2023-02-24T17:00:55.869Z,36.10
2023-02-24T17:03:27.034Z,36.10
2023-02-24T17:05:56.309Z,36.10
2023-02-24T17:08:24.949Z,36.20
2023-02-24T17:10:54.154Z,36.20
2023-02-24T17:13:23.031Z,36.20
2023-02-24T17:15:57.534Z,36.30
2023-02-24T17:18:27.733Z,36.20
2023-02-24T17:20:55.998Z,36.20
2023-02-24T17:23:25.192Z,36.30
2023-02-24T17:25:57.117Z,36.30
2023-02-24T17:28:27.194Z,36.30
2023-02-24T17:30:55.656Z,36.30
2023-02-24T17:33:24.480Z,36.30
2023-02-24T17:35:52.713Z,36.30
2023-02-24T17:38:23.990Z,36.40
2023-02-24T17:40:53.189Z,36.40
2023-02-24T17:43:21.442Z,36.40
2023-02-24T17:45:51.979Z,36.40
2023-02-24T17:48:21.029Z,36.40
2023-02-24T17:50:49.597Z,36.40
2023-02-24T17:53:17.832Z,36.40
2023-02-24T17:56:01.556Z,36.40
2023-02-24T17:58:31.749Z,36.40
2023-02-24T18:01:02.598Z,36.40
2023-02-24T18:03:35.147Z,36.40
2023-02-24T18:06:07.272Z,36.50
2023-02-24T18:08:37.186Z,36.50
2023-02-24T18:11:06.630Z,36.50
2023-02-24T18:13:35.520Z,36.50
2023-02-24T18:16:10.030Z,36.50
2023-02-24T18:18:38.545Z,36.50
2023-02-24T18:21:08.867Z,36.50
2023-02-24T18:23:40.707Z,36.60
2023-02-24T18:26:11.590Z,36.60
2023-02-24T18:28:40.232Z,36.60
2023-02-24T18:31:17.160Z,36.60
2023-02-24T18:33:45.773Z,36.60
2023-02-24T18:36:14.719Z,36.60
2023-02-24T18:38:43.841Z,36.60
2023-02-24T18:41:16.169Z,36.60
2023-02-24T18:43:44.893Z,36.60
2023-02-24T18:46:15.524Z,36.60
2023-02-24T18:48:44.876Z,36.70
2023-02-24T18:51:22.280Z,36.70
2023-02-24T18:53:52.734Z,36.70
2023-02-24T18:56:26.952Z,36.70
2023-02-24T18:58:58.170Z,36.70
2023-02-24T19:01:27.221Z,36.70
2023-02-24T19:03:56.241Z,36.70
2023-02-24T19:06:27.282Z,36.70
2023-02-24T19:09:07.751Z,36.70
2023-02-24T19:11:36.571Z,36.70
2023-02-24T19:14:04.953Z,36.80
2023-02-24T19:16:33.663Z,36.80
2023-02-24T19:19:01.761Z,36.80
2023-02-24T19:21:34.589Z,36.80
2023-02-24T19:24:08.499Z,36.80
2023-02-24T19:26:36.963Z,36.80
2023-02-24T19:29:06.095Z,36.80
2023-02-24T19:31:35.356Z,36.90
2023-02-24T19:34:07.938Z,36.90
2023-02-24T19:36:38.319Z,36.90
2023-02-24T19:39:10.711Z,36.90
2023-02-24T19:41:39.112Z,36.90
2023-02-24T19:44:07.613Z,36.90
2023-02-24T19:46:36.634Z,36.90
2023-02-24T19:49:05.191Z,36.90
2023-02-24T19:51:33.513Z,36.90
2023-02-24T19:54:03.589Z,37.00
2023-02-24T19:56:36.152Z,37.00
2023-02-24T19:59:06.340Z,37.00
2023-02-24T20:01:35.495Z,37.00
2023-02-24T20:04:05.517Z,37.00
2023-02-24T20:06:37.276Z,37.00
2023-02-24T20:09:15.832Z,37.00
2023-02-24T20:11:45.493Z,37.00
2023-02-24T20:14:14.950Z,37.00
2023-02-24T20:16:43.993Z,37.00
2023-02-24T20:19:13.755Z,37.00
2023-02-24T20:21:42.550Z,37.00
2023-02-24T20:24:14.951Z,37.00
2023-02-24T20:26:50.014Z,37.00
2023-02-24T20:29:21.291Z,37.00
2023-02-24T20:31:51.078Z,37.00
2023-02-24T20:34:19.438Z,37.10
2023-02-24T20:36:47.830Z,37.10
2023-02-24T20:39:15.818Z,37.10
2023-02-24T20:41:44.813Z,37.10
2023-02-24T20:44:13.112Z,37.10
2023-02-24T20:46:41.359Z,37.10
2023-02-24T20:49:12.956Z,37.10
2023-02-24T20:51:42.087Z,37.10
2023-02-24T20:54:11.856Z,37.10
2023-02-24T20:56:41.972Z,37.20
2023-02-24T20:59:14.090Z,37.20
2023-02-24T21:01:45.790Z,37.20
2023-02-24T21:04:16.375Z,37.20
2023-02-24T21:06:44.194Z,37.20
2023-02-24T21:09:12.333Z,37.20
2023-02-24T21:11:40.394Z,37.20
2023-02-24T21:14:08.631Z,37.20
2023-02-24T21:16:36.812Z,37.20
2023-02-24T21:19:04.754Z,37.20
2023-02-24T21:21:33.188Z,37.30
2023-02-24T21:24:01.428Z,37.20
2023-02-24T21:26:29.851Z,37.30
2023-02-24T21:28:59.508Z,37.30
2023-02-24T21:31:28.450Z,37.30
2023-02-24T21:33:57.115Z,37.30
2023-02-24T21:36:26.559Z,37.30
2023-02-24T21:38:55.506Z,37.30
2023-02-24T21:41:24.226Z,37.30
2023-02-24T21:43:55.297Z,37.30
2023-02-24T21:46:28.569Z,37.30
2023-02-24T21:48:58.815Z,37.30
2023-02-24T21:51:28.624Z,37.30
2023-02-24T21:53:57.833Z,37.30
2023-02-24T21:56:28.949Z,37.30
2023-02-24T21:59:03.784Z,37.40
2023-02-24T22:01:37.009Z,37.40
2023-02-24T22:04:08.867Z,37.30
2023-02-24T22:06:39.285Z,37.30
2023-02-24T22:09:09.830Z,37.30
2023-02-24T22:11:41.195Z,37.40
2023-02-24T22:14:11.593Z,37.40
2023-02-24T22:16:40.649Z,37.40
2023-02-24T22:19:09.336Z,37.40
2023-02-24T22:21:39.530Z,37.40
2023-02-24T22:24:09.027Z,37.40
2023-02-24T22:26:37.522Z,37.40
2023-02-24T22:29:06.393Z,37.40
2023-02-24T22:31:36.854Z,37.40
2023-02-24T22:34:06.264Z,37.40
2023-02-24T22:36:39.130Z,37.40
2023-02-24T22:39:09.254Z,37.40
2023-02-24T22:41:38.636Z,37.40
2023-02-24T22:44:07.281Z,37.40
2023-02-24T22:46:37.903Z,37.50
2023-02-24T22:49:07.135Z,37.50
2023-02-24T22:51:35.033Z,37.40
2023-02-24T22:54:03.870Z,37.50
2023-02-24T22:56:32.567Z,37.50
2023-02-24T22:59:00.850Z,37.50
2023-02-24T23:01:30.834Z,37.50
2023-02-24T23:04:03.721Z,37.50
2023-02-24T23:06:32.368Z,37.50
2023-02-24T23:09:02.145Z,37.50
2023-02-24T23:11:41.459Z,37.50
2023-02-24T23:14:14.041Z,37.50
2023-02-24T23:16:44.693Z,37.50
2023-02-24T23:19:16.978Z,37.60
2023-02-24T23:21:47.992Z,37.50
2023-02-24T23:24:16.908Z,37.50
2023-02-24T23:26:51.490Z,37.60
2023-02-24T23:29:20.084Z,37.60
2023-02-24T23:31:48.625Z,37.60
2023-02-24T23:34:16.821Z,37.60
2023-02-24T23:36:46.885Z,37.60
2023-02-24T23:39:20.541Z,37.60
2023-02-24T23:41:48.479Z,37.60
2023-02-24T23:44:16.320Z,37.60
2023-02-24T23:46:44.363Z,37.60
2023-02-24T23:49:12.297Z,37.60
2023-02-24T23:51:47.934Z,37.60
2023-02-24T23:54:17.961Z,37.60
2023-02-24T23:56:46.644Z,37.60
2023-02-24T23:59:15.008Z,37.60
